Sign-in with your pilot id or email, or register

ICAO: EDDK Name / Country: Cologne/Bonn / Germany
Latitude: 50.8789 Longitude: 7.12292
Total Arrivals:
Strict Standards: Non-static method AirportData::getarrflights() should not be called statically, assuming $this from incompatible context in /var/www/customers/vh-7192/web/home/phpvms/core/templates/airport_info.tpl on line 18
1
Total Departures:
Strict Standards: Non-static method AirportData::getdeptflights() should not be called statically, assuming $this from incompatible context in /var/www/customers/vh-7192/web/home/phpvms/core/templates/airport_info.tpl on line 21
1
Latest Arrival: MTA11P (LEMD-EDDK) Tibor Berces Latest Departure: MTA11P (EDDK-LHBP) Tibor Berces
Metar: EDDK 172320Z VRB01KT CAVOK 07/05 Q1025 NOSIG
More info

Charts for EDDK


NOTAM


Warning: file_get_contents(http://api.vateud.net/notams/EDDK.json): failed to open stream: Redirection limit reached, aborting in /var/www/customers/vh-7192/web/home/phpvms/core/common/NOTAMSData.class.php on line 18

Warning: Invalid argument supplied for foreach() in /var/www/customers/vh-7192/web/home/phpvms/core/common/NOTAMSData.class.php on line 22

Cologne/Bonn